Time;durP1;ratioP1;P1;durP2;ratioP2;P2;SDS_P1;SDS_P2;PMS_P1;PMS_P2;Temp;Humidity;BMP_temperature;BMP_pressure;BME280_temperature;BME280_humidity;BME280_pressure;Samples;Min_cycle;Max_cycle;Signal;HPM_P1;HPM_P2
2022/04/08 00:00:06;;;;;;;2.30;1.00;;;5.80;99.90;;;;;;5041001;28;20205;-77
2022/04/08 00:02:38;;;;;;;3.53;1.05;;;5.60;99.90;;;;;;5040805;28;20807;-78
2022/04/08 00:05:08;;;;;;;5.18;1.17;;;5.60;99.90;;;;;;5040554;28;20194;-77
2022/04/08 00:07:36;;;;;;;2.75;1.00;;;5.50;99.90;;;;;;5040895;28;20308;-78
2022/04/08 00:10:04;;;;;;;2.70;0.90;;;5.50;99.90;;;;;;5040058;28;20216;-77
2022/04/08 00:12:34;;;;;;;3.90;1.17;;;5.50;99.90;;;;;;5040541;28;20290;-78
2022/04/08 00:15:03;;;;;;;2.53;1.00;;;5.40;99.90;;;;;;5040423;28;20509;-78
2022/04/08 00:17:31;;;;;;;5.13;0.63;;;5.40;99.90;;;;;;5039694;28;20209;-77
2022/04/08 00:19:59;;;;;;;1.02;0.85;;;5.40;99.90;;;;;;5040320;28;20209;-78
2022/04/08 00:22:28;;;;;;;1.73;0.80;;;5.40;99.90;;;;;;5039522;28;20241;-77
2022/04/08 00:24:56;;;;;;;1.88;0.88;;;5.40;99.90;;;;;;5039640;28;20301;-79
2022/04/08 00:27:23;;;;;;;3.67;2.28;;;5.40;99.90;;;;;;5039307;28;20688;-79
2022/04/08 00:29:53;;;;;;;3.03;0.90;;;5.50;99.90;;;;;;5040305;28;20626;-77
2022/04/08 00:32:20;;;;;;;3.15;1.35;;;5.50;99.90;;;;;;5039785;28;20619;-77
2022/04/08 00:34:48;;;;;;;6.25;0.95;;;5.40;99.90;;;;;;5039270;28;20212;-76
2022/04/08 00:37:16;;;;;;;3.20;0.80;;;5.40;99.90;;;;;;5039931;28;20209;-79
2022/04/08 00:39:44;;;;;;;3.05;0.65;;;5.40;99.90;;;;;;5040052;28;20582;-78
2022/04/08 00:42:13;;;;;;;4.68;0.90;;;5.30;99.90;;;;;;5039254;28;20236;-79
2022/04/08 00:44:41;;;;;;;6.57;1.15;;;5.40;99.90;;;;;;5040936;28;20594;-78
2022/04/08 00:47:11;;;;;;;3.67;0.90;;;5.40;99.90;;;;;;5040834;28;20356;-79
2022/04/08 00:49:39;;;;;;;2.95;0.90;;;5.40;99.90;;;;;;5041551;28;20363;-80
2022/04/08 00:52:08;;;;;;;9.98;1.33;;;5.40;99.90;;;;;;5043499;28;20284;-81
2022/04/08 00:54:37;;;;;;;3.13;1.13;;;5.50;99.90;;;;;;5039161;28;20267;-77
2022/04/08 00:57:05;;;;;;;2.85;0.75;;;5.50;99.90;;;;;;5038505;28;20194;-76
2022/04/08 00:59:33;;;;;;;5.25;1.20;;;5.50;99.90;;;;;;5039831;28;20861;-77
2022/04/08 01:02:02;;;;;;;6.30;1.27;;;5.50;99.90;;;;;;5039684;28;20240;-77
2022/04/08 01:04:32;;;;;;;4.88;0.98;;;5.50;99.90;;;;;;5038918;28;20600;-77
2022/04/08 01:07:00;;;;;;;3.83;1.17;;;5.50;99.90;;;;;;5038898;28;20221;-77
2022/04/08 01:09:27;;;;;;;4.45;1.08;;;5.50;99.90;;;;;;5039577;28;20681;-77
2022/04/08 01:11:56;;;;;;;2.17;0.98;;;5.40;99.90;;;;;;5041463;28;20218;-77
2022/04/08 01:14:24;;;;;;;4.65;1.15;;;5.40;99.90;;;;;;5039390;28;20206;-77
2022/04/08 01:16:52;;;;;;;8.43;1.30;;;5.40;99.90;;;;;;5039019;28;20214;-77
2022/04/08 01:19:20;;;;;;;12.63;2.33;;;5.30;99.90;;;;;;5039600;28;20205;-77
2022/04/08 01:21:49;;;;;;;3.90;1.30;;;5.40;99.90;;;;;;5041789;28;20258;-79
2022/04/08 01:24:17;;;;;;;5.53;1.00;;;5.40;99.90;;;;;;5043419;28;20236;-79
2022/04/08 01:26:47;;;;;;;3.60;1.50;;;5.40;99.90;;;;;;5041774;28;20202;-78
2022/04/08 01:29:15;;;;;;;8.63;2.10;;;5.40;99.90;;;;;;5039248;28;20640;-78
2022/04/08 01:31:45;;;;;;;9.35;1.98;;;5.40;99.90;;;;;;5038625;28;20716;-79
2022/04/08 01:34:13;;;;;;;4.45;1.70;;;5.40;99.90;;;;;;5038662;28;20305;-80
2022/04/08 01:36:42;;;;;;;3.42;1.52;;;5.40;99.90;;;;;;5039411;28;20201;-79
2022/04/08 01:39:09;;;;;;;2.95;1.33;;;5.40;99.90;;;;;;5039650;28;20340;-77
2022/04/08 01:41:37;;;;;;;5.47;1.40;;;5.40;99.90;;;;;;5043274;28;20231;-79
2022/04/08 01:44:07;;;;;;;5.75;1.38;;;5.40;99.90;;;;;;5043212;28;20243;-76
2022/04/08 01:46:35;;;;;;;2.92;1.48;;;5.40;99.90;;;;;;5043415;28;20281;-79
2022/04/08 01:49:03;;;;;;;8.45;1.48;;;5.40;99.90;;;;;;5042980;28;20225;-78
2022/04/08 01:51:31;;;;;;;4.22;1.17;;;5.40;99.90;;;;;;5042461;28;20274;-80
2022/04/08 01:53:59;;;;;;;5.07;1.80;;;5.40;99.90;;;;;;5042631;28;20244;-78
2022/04/08 01:56:27;;;;;;;5.78;1.23;;;5.50;99.90;;;;;;5044122;28;20525;-77
2022/04/08 01:58:54;;;;;;;10.05;1.52;;;5.50;99.90;;;;;;5043655;28;20573;-77
2022/04/08 02:01:23;;;;;;;2.67;2.15;;;5.50;99.90;;;;;;5043602;28;20420;-78
2022/04/08 02:03:51;;;;;;;5.38;1.20;;;5.50;99.90;;;;;;5044199;28;20221;-77
2022/04/08 02:06:19;;;;;;;10.88;1.75;;;5.50;99.90;;;;;;5042988;28;20259;-78
2022/04/08 02:08:49;;;;;;;4.72;1.40;;;5.50;99.90;;;;;;5043813;28;20716;-79
2022/04/08 02:11:17;;;;;;;6.15;1.30;;;5.50;99.90;;;;;;5044336;28;20230;-79
2022/04/08 02:13:46;;;;;;;7.78;2.38;;;5.50;99.90;;;;;;5045058;28;20208;-76
2022/04/08 02:16:14;;;;;;;5.90;1.35;;;5.50;99.90;;;;;;5044934;28;20208;-75
2022/04/08 02:18:43;;;;;;;11.27;1.75;;;5.60;99.90;;;;;;5045111;28;20212;-80
2022/04/08 02:21:11;;;;;;;5.50;1.30;;;5.50;99.90;;;;;;5045872;28;20588;-81
2022/04/08 02:23:39;;;;;;;4.82;1.30;;;5.60;99.90;;;;;;5044336;28;20733;-80
2022/04/08 02:26:09;;;;;;;5.25;1.42;;;5.50;99.90;;;;;;5044414;28;20248;-79
2022/04/08 02:28:37;;;;;;;5.15;1.05;;;5.40;99.90;;;;;;5044053;28;20202;-77
2022/04/08 02:31:05;;;;;;;9.95;2.33;;;5.20;99.90;;;;;;5042774;28;20228;-77
2022/04/08 02:33:33;;;;;;;3.90;0.85;;;5.00;99.90;;;;;;5032179;28;20213;-78
2022/04/08 02:36:03;;;;;;;2.30;1.63;;;4.90;99.90;;;;;;5036297;28;20209;-76
2022/04/08 02:38:31;;;;;;;4.65;1.38;;;4.80;99.90;;;;;;5028829;28;20297;-76
2022/04/08 02:40:59;;;;;;;8.73;1.27;;;4.70;99.90;;;;;;5042630;28;20308;-77
2022/04/08 02:43:27;;;;;;;4.63;1.90;;;4.70;99.90;;;;;;5034213;28;20222;-76
2022/04/08 02:45:55;;;;;;;5.88;1.10;;;4.70;99.90;;;;;;5021922;28;20202;-75
2022/04/08 02:48:23;;;;;;;4.82;1.63;;;4.60;99.90;;;;;;5021618;28;20656;-72
2022/04/08 02:50:51;;;;;;;4.07;1.42;;;4.60;99.90;;;;;;5021293;28;20743;-72
2022/04/08 02:53:20;;;;;;;9.07;1.52;;;4.70;99.90;;;;;;5032752;28;20301;-72
2022/04/08 02:55:48;;;;;;;3.70;1.20;;;4.70;99.90;;;;;;5032005;28;20206;-75
2022/04/08 02:58:16;;;;;;;5.40;1.55;;;4.80;99.90;;;;;;5021731;28;20222;-75
2022/04/08 03:00:44;;;;;;;11.20;2.75;;;4.80;99.90;;;;;;5021376;28;20349;-75
2022/04/08 03:03:12;;;;;;;4.20;1.73;;;4.80;99.90;;;;;;5020818;28;20685;-76
2022/04/08 03:05:39;;;;;;;5.57;1.77;;;4.70;99.90;;;;;;5021545;28;20203;-75
2022/04/08 03:08:08;;;;;;;12.88;1.65;;;4.70;99.90;;;;;;5020393;28;20290;-75
2022/04/08 03:10:37;;;;;;;4.68;1.38;;;4.70;99.90;;;;;;5026502;28;20249;-76
2022/04/08 03:13:05;;;;;;;5.97;2.08;;;4.70;99.90;;;;;;5037160;28;20207;-76
2022/04/08 03:15:33;;;;;;;11.13;3.13;;;4.60;99.90;;;;;;5020030;28;20203;-75
2022/04/08 03:18:01;;;;;;;7.93;1.75;;;4.40;99.90;;;;;;5027327;28;20554;-75
2022/04/08 03:20:29;;;;;;;9.98;2.17;;;4.30;99.90;;;;;;5028995;28;20572;-75
2022/04/08 03:22:56;;;;;;;16.90;2.17;;;4.20;99.90;;;;;;5027810;28;20206;-75
2022/04/08 03:25:24;;;;;;;4.43;1.65;;;4.20;99.90;;;;;;5032249;28;20280;-75
2022/04/08 03:27:54;;;;;;;9.23;1.80;;;4.20;99.90;;;;;;5026668;28;20298;-76
2022/04/08 03:30:21;;;;;;;9.32;2.58;;;4.10;99.90;;;;;;5036930;28;20721;-76
2022/04/08 03:32:49;;;;;;;8.98;1.83;;;4.20;99.90;;;;;;5035487;28;20225;-74
2022/04/08 03:35:17;;;;;;;4.28;1.55;;;4.20;99.90;;;;;;5037589;28;20292;-74
2022/04/08 03:37:45;;;;;;;9.45;1.98;;;4.20;99.90;;;;;;5037968;28;20308;-74
2022/04/08 03:40:14;;;;;;;12.98;2.13;;;4.30;99.90;;;;;;5038722;28;20391;-75
2022/04/08 03:42:42;;;;;;;5.80;1.30;;;4.20;99.90;;;;;;5042726;28;20305;-74
2022/04/08 03:45:13;;;;;;;9.88;2.22;;;4.30;99.90;;;;;;5041323;28;20860;-74
2022/04/08 03:47:41;;;;;;;4.38;1.52;;;4.30;99.90;;;;;;5040492;28;20275;-75
2022/04/08 03:50:09;;;;;;;6.05;1.45;;;4.30;99.90;;;;;;5043739;28;20755;-74
2022/04/08 03:52:36;;;;;;;12.63;2.45;;;4.30;99.90;;;;;;5040840;28;20204;-74
2022/04/08 03:55:06;;;;;;;14.63;2.30;;;4.30;99.90;;;;;;5034992;28;20571;-75
2022/04/08 03:57:33;;;;;;;10.18;1.42;;;4.40;99.90;;;;;;5031745;28;20260;-73
2022/04/08 04:00:01;;;;;;;9.30;2.35;;;4.40;99.90;;;;;;5042437;28;20271;-73
2022/04/08 04:02:30;;;;;;;8.27;1.92;;;4.50;99.90;;;;;;5041170;28;20669;-74
2022/04/08 04:04:59;;;;;;;6.35;2.00;;;4.50;99.90;;;;;;5040921;28;20209;-73
2022/04/08 04:07:27;;;;;;;8.00;1.50;;;4.60;99.90;;;;;;5039869;28;20292;-73
2022/04/08 04:09:55;;;;;;;7.05;2.10;;;4.70;99.90;;;;;;5039731;28;20197;-75
2022/04/08 04:12:23;;;;;;;12.98;1.90;;;4.70;99.90;;;;;;5040831;28;20212;-74
2022/04/08 04:14:51;;;;;;;8.68;1.75;;;4.60;99.90;;;;;;5038572;28;20595;-74
2022/04/08 04:17:19;;;;;;;6.45;2.08;;;4.60;99.90;;;;;;5039164;28;20760;-74
2022/04/08 04:19:48;;;;;;;8.80;2.00;;;4.60;99.90;;;;;;5039243;28;20198;-73
2022/04/08 04:22:16;;;;;;;3.63;1.30;;;4.70;99.90;;;;;;5039450;28;20292;-75
2022/04/08 04:24:44;;;;;;;15.85;3.15;;;4.70;99.90;;;;;;5040292;28;20221;-74
2022/04/08 04:27:12;;;;;;;2.67;1.50;;;4.80;99.90;;;;;;5040013;28;20208;-74
2022/04/08 04:29:40;;;;;;;9.57;2.30;;;4.80;99.90;;;;;;5040602;28;20202;-74
2022/04/08 04:32:09;;;;;;;7.75;2.10;;;4.90;99.90;;;;;;5041968;28;20236;-75
2022/04/08 04:34:38;;;;;;;8.52;2.17;;;4.90;99.90;;;;;;5041423;28;20198;-73
2022/04/08 04:37:08;;;;;;;5.75;2.95;;;4.90;99.90;;;;;;5026578;28;20831;-74
2022/04/08 04:39:37;;;;;;;5.38;1.42;;;4.80;99.90;;;;;;5020164;28;20845;-73
2022/04/08 04:42:07;;;;;;;7.30;2.05;;;4.70;99.90;;;;;;5020410;28;20238;-71
2022/04/08 04:44:35;;;;;;;12.43;2.42;;;4.70;99.90;;;;;;5021072;28;20868;-74
2022/04/08 04:47:03;;;;;;;8.32;1.60;;;4.70;99.90;;;;;;5020968;28;20218;-73
2022/04/08 04:49:31;;;;;;;4.68;1.75;;;4.70;99.90;;;;;;5025537;28;20637;-72
2022/04/08 04:51:59;;;;;;;3.85;1.27;;;4.70;99.90;;;;;;5020889;28;20830;-72
2022/04/08 04:54:28;;;;;;;7.80;1.98;;;4.70;99.90;;;;;;5019060;28;20463;-72
2022/04/08 04:56:56;;;;;;;2.80;1.88;;;4.70;99.90;;;;;;5019803;28;20225;-72
2022/04/08 04:59:24;;;;;;;7.22;2.17;;;4.50;99.90;;;;;;5020110;28;20233;-72
2022/04/08 05:01:51;;;;;;;6.90;1.77;;;4.40;99.90;;;;;;5019964;28;20226;-73
2022/04/08 05:04:20;;;;;;;6.68;2.22;;;4.30;99.90;;;;;;5035410;28;20217;-73
2022/04/08 05:06:48;;;;;;;4.93;1.40;;;4.30;99.90;;;;;;5039565;28;20305;-72
2022/04/08 05:09:16;;;;;;;6.78;1.50;;;4.30;99.90;;;;;;5038857;28;20216;-72
2022/04/08 05:11:45;;;;;;;7.07;1.75;;;4.20;99.90;;;;;;5040077;28;20228;-72
2022/04/08 05:14:13;;;;;;;6.95;2.50;;;4.20;99.90;;;;;;5037872;28;20190;-72
2022/04/08 05:16:41;;;;;;;4.13;1.70;;;4.20;99.90;;;;;;5037832;28;20319;-71
2022/04/08 05:19:09;;;;;;;5.53;1.50;;;4.20;99.90;;;;;;5038535;28;20197;-72
2022/04/08 05:21:37;;;;;;;11.13;3.20;;;4.30;99.90;;;;;;5038540;28;20230;-71
2022/04/08 05:24:06;;;;;;;7.70;1.83;;;4.30;99.90;;;;;;5038032;28;20229;-72
2022/04/08 05:26:33;;;;;;;11.43;2.10;;;4.20;99.90;;;;;;5038331;28;20205;-71
2022/04/08 05:29:02;;;;;;;6.30;1.90;;;4.20;99.90;;;;;;5038897;28;20638;-71
2022/04/08 05:31:30;;;;;;;4.80;2.25;;;4.20;99.90;;;;;;5040104;28;20568;-73
2022/04/08 05:33:58;;;;;;;11.05;2.40;;;4.20;99.90;;;;;;5038782;28;20206;-73
2022/04/08 05:36:26;;;;;;;8.02;2.20;;;4.40;99.90;;;;;;5038792;28;20305;-72
2022/04/08 05:38:54;;;;;;;19.00;2.42;;;4.40;99.90;;;;;;5037306;28;20201;-72
2022/04/08 05:41:22;;;;;;;11.73;3.22;;;4.50;99.90;;;;;;5037621;28;20217;-78
2022/04/08 05:43:49;;;;;;;10.32;1.92;;;4.60;99.90;;;;;;5034062;28;20206;-79
2022/04/08 05:46:19;;;;;;;10.45;2.10;;;4.70;99.90;;;;;;5024546;28;20458;-79
2022/04/08 05:48:46;;;;;;;8.38;1.67;;;4.70;99.90;;;;;;5018764;28;20210;-79
2022/04/08 05:51:14;;;;;;;7.00;1.52;;;4.80;99.90;;;;;;5028956;28;20661;-79
2022/04/08 05:53:42;;;;;;;6.07;1.65;;;4.80;99.90;;;;;;5033631;28;20228;-80
2022/04/08 05:56:10;;;;;;;12.60;3.30;;;4.90;99.90;;;;;;5041879;28;20202;-80
2022/04/08 05:58:38;;;;;;;4.82;1.80;;;4.90;99.90;;;;;;5039880;28;20219;-78
2022/04/08 06:01:06;;;;;;;8.75;2.75;;;4.80;99.90;;;;;;5041419;28;20635;-78
2022/04/08 06:03:35;;;;;;;8.15;2.08;;;4.80;99.90;;;;;;5041997;28;20511;-79
2022/04/08 06:06:04;;;;;;;4.22;1.60;;;4.80;99.90;;;;;;5041269;28;20228;-79
2022/04/08 06:08:32;;;;;;;8.95;2.42;;;4.70;99.90;;;;;;5041086;28;20304;-78
2022/04/08 06:11:00;;;;;;;7.50;1.52;;;4.60;99.90;;;;;;5042211;28;20256;-79
2022/04/08 06:13:28;;;;;;;9.07;1.80;;;4.60;99.90;;;;;;5043304;28;20482;-78
2022/04/08 06:15:56;;;;;;;9.32;2.65;;;4.50;99.90;;;;;;5041649;28;20321;-78
2022/04/08 06:18:24;;;;;;;9.32;2.30;;;4.50;99.90;;;;;;5042661;28;20657;-78
2022/04/08 06:20:53;;;;;;;7.60;1.60;;;4.40;99.90;;;;;;5040702;28;20268;-78
2022/04/08 06:23:22;;;;;;;14.10;3.25;;;4.40;99.90;;;;;;5044097;28;20289;-78
2022/04/08 06:25:50;;;;;;;8.18;2.15;;;4.50;99.90;;;;;;5040089;28;20317;-79
2022/04/08 06:28:18;;;;;;;6.38;2.10;;;4.60;99.90;;;;;;5042663;28;20202;-77
2022/04/08 06:30:46;;;;;;;8.60;2.00;;;4.70;99.90;;;;;;5031924;28;20221;-78
2022/04/08 06:33:14;;;;;;;7.00;2.72;;;4.80;99.90;;;;;;5023842;28;20289;-78
2022/04/08 06:35:44;;;;;;;9.60;2.15;;;5.00;99.90;;;;;;5039530;28;20240;-78
2022/04/08 06:38:14;;;;;;;9.75;2.22;;;5.00;99.90;;;;;;5036991;28;20297;-79
2022/04/08 06:40:42;;;;;;;3.90;2.90;;;5.10;99.90;;;;;;5023497;28;20226;-79
2022/04/08 06:43:13;;;;;;;4.43;1.73;;;5.30;99.90;;;;;;5035600;28;20702;-79
2022/04/08 06:45:41;;;;;;;9.10;1.75;;;5.40;99.90;;;;;;5053547;28;20301;-79
2022/04/08 06:48:09;;;;;;;11.00;1.98;;;5.50;99.90;;;;;;5052109;28;20440;-79
2022/04/08 06:50:37;;;;;;;10.35;2.38;;;5.40;99.90;;;;;;5054360;28;20657;-79
2022/04/08 06:53:05;;;;;;;6.90;1.77;;;5.40;99.90;;;;;;5052897;28;20233;-79
2022/04/08 06:55:35;;;;;;;12.43;2.10;;;5.40;99.90;;;;;;5046173;28;20198;-80
2022/04/08 06:58:14;;;;;;;7.43;1.63;;;5.50;99.90;;;;;;5039953;28;20248;-80
2022/04/08 07:00:43;;;;;;;6.50;1.45;;;5.40;99.90;;;;;;5053072;28;20233;-80
2022/04/08 07:03:11;;;;;;;8.02;2.60;;;5.40;99.90;;;;;;5052108;28;20201;-79
2022/04/08 07:05:38;;;;;;;7.05;1.88;;;5.30;99.90;;;;;;5044532;28;20305;-79
2022/04/08 07:08:07;;;;;;;2.83;1.60;;;5.30;99.90;;;;;;5038401;28;20245;-81
2022/04/08 07:10:38;;;;;;;8.68;1.70;;;5.30;99.90;;;;;;5036544;28;20265;-80
2022/04/08 07:13:07;;;;;;;6.78;1.60;;;5.30;99.90;;;;;;5033933;28;20230;-78
2022/04/08 07:15:36;;;;;;;8.50;1.65;;;5.30;99.90;;;;;;5035406;28;20198;-78
2022/04/08 07:18:06;;;;;;;6.32;1.98;;;5.30;99.90;;;;;;5031779;28;20217;-79
2022/04/08 07:20:37;;;;;;;8.40;3.05;;;5.30;99.90;;;;;;5035927;28;20293;-80
2022/04/08 07:23:05;;;;;;;3.80;1.40;;;5.40;99.90;;;;;;5036218;28;20202;-79
2022/04/08 07:25:33;;;;;;;5.53;1.55;;;5.30;99.90;;;;;;5050157;28;20224;-80
2022/04/08 07:28:04;;;;;;;3.95;1.67;;;5.30;99.90;;;;;;5051138;28;20205;-80
2022/04/08 07:30:32;;;;;;;8.27;3.35;;;5.40;99.90;;;;;;5051220;28;20304;-80
2022/04/08 07:33:01;;;;;;;4.50;0.95;;;5.50;99.90;;;;;;5052298;28;20228;-79
2022/04/08 07:35:30;;;;;;;5.00;1.30;;;5.60;99.90;;;;;;5053354;28;20754;-80
2022/04/08 07:37:58;;;;;;;4.50;1.13;;;5.70;99.90;;;;;;5050942;28;20209;-79
2022/04/08 07:40:26;;;;;;;3.65;1.33;;;5.70;99.90;;;;;;5048922;28;20252;-77
2022/04/08 07:42:54;;;;;;;5.13;1.00;;;5.90;99.90;;;;;;5038724;28;20218;-78
2022/04/08 07:45:27;;;;;;;3.70;1.08;;;5.90;99.90;;;;;;5042313;28;20629;-80
2022/04/08 07:47:58;;;;;;;3.03;1.15;;;6.00;99.90;;;;;;5034606;28;20206;-79
2022/04/08 07:50:27;;;;;;;4.35;1.00;;;6.10;99.90;;;;;;5031980;28;20332;-78
2022/04/08 07:52:55;;;;;;;2.05;0.90;;;6.20;99.90;;;;;;5039864;28;20658;-75
2022/04/08 07:55:24;;;;;;;5.50;1.10;;;6.30;99.90;;;;;;5032517;28;20271;-77
2022/04/08 07:57:53;;;;;;;5.55;1.40;;;6.40;99.90;;;;;;5030482;28;20649;-76
2022/04/08 08:00:26;;;;;;;4.43;0.93;;;6.40;99.90;;;;;;5036324;28;20222;-75
2022/04/08 08:02:55;;;;;;;0.73;0.52;;;6.40;99.90;;;;;;5028730;28;20459;-75
2022/04/08 08:05:23;;;;;;;0.60;0.52;;;6.40;99.90;;;;;;5033245;28;20202;-76
2022/04/08 08:07:52;;;;;;;1.60;0.70;;;6.40;99.90;;;;;;5031969;28;20230;-75
2022/04/08 08:10:21;;;;;;;2.15;0.70;;;6.30;99.90;;;;;;5027347;28;20213;-74
2022/04/08 08:12:49;;;;;;;3.13;0.77;;;6.30;99.90;;;;;;5027851;28;20822;-75
2022/04/08 08:15:18;;;;;;;7.30;3.10;;;6.50;99.90;;;;;;5033936;28;20520;-75
2022/04/08 08:17:48;;;;;;;7.72;1.08;;;6.70;99.90;;;;;;5026332;28;20194;-74
2022/04/08 08:20:17;;;;;;;5.70;1.88;;;6.80;99.90;;;;;;5036232;28;20245;-76
2022/04/08 08:22:46;;;;;;;3.67;1.40;;;6.90;99.90;;;;;;5034241;28;20202;-76
2022/04/08 08:25:14;;;;;;;1.88;0.98;;;7.00;99.90;;;;;;5031592;28;20236;-73
2022/04/08 08:27:44;;;;;;;6.25;2.45;;;6.90;99.90;;;;;;5018897;28;20248;-76
2022/04/08 08:30:14;;;;;;;3.17;0.98;;;6.80;99.90;;;;;;5026426;28;20762;-75
2022/04/08 08:32:45;;;;;;;3.78;2.03;;;6.80;99.90;;;;;;5039640;28;20586;-75
2022/04/08 08:35:17;;;;;;;4.30;1.08;;;6.80;99.90;;;;;;5031106;28;20201;-74
2022/04/08 08:37:45;;;;;;;6.22;1.70;;;6.90;99.90;;;;;;5027800;28;20202;-73
2022/04/08 08:40:16;;;;;;;3.72;1.67;;;7.00;99.90;;;;;;5027285;28;20832;-73
2022/04/08 08:42:44;;;;;;;6.03;2.35;;;7.30;99.90;;;;;;5039428;28;20284;-75
2022/04/08 08:45:14;;;;;;;5.47;1.45;;;7.50;99.90;;;;;;5040658;28;20221;-76
2022/04/08 08:47:46;;;;;;;5.78;1.58;;;7.70;99.90;;;;;;5040243;28;20704;-75
2022/04/08 08:50:18;;;;;;;2.58;1.15;;;7.80;99.90;;;;;;5036792;28;20230;-75
2022/04/08 08:52:50;;;;;;;4.38;1.45;;;7.80;99.90;;;;;;5035480;28;20210;-75
2022/04/08 08:55:19;;;;;;;5.63;1.48;;;7.90;99.90;;;;;;5019224;28;20782;-74
2022/04/08 08:57:47;;;;;;;4.00;1.35;;;7.90;99.90;;;;;;5029582;28;20222;-75
2022/04/08 09:00:18;;;;;;;6.28;1.15;;;7.90;99.90;;;;;;5035229;28;20716;-74
2022/04/08 09:02:49;;;;;;;4.35;1.30;;;7.90;99.90;;;;;;5021839;28;20214;-74
2022/04/08 09:05:24;;;;;;;4.95;1.70;;;8.00;99.90;;;;;;5039779;28;20209;-74
2022/04/08 09:07:57;;;;;;;7.88;2.15;;;8.00;99.90;;;;;;5039374;28;20668;-75
2022/04/08 09:10:30;;;;;;;6.68;1.88;;;8.00;99.90;;;;;;5038189;28;20688;-73
2022/04/08 09:13:00;;;;;;;4.78;1.30;;;8.00;99.90;;;;;;5036849;28;20439;-73
2022/04/08 09:15:29;;;;;;;6.35;1.45;;;8.00;99.90;;;;;;5037252;28;20419;-74
2022/04/08 09:18:07;;;;;;;2.85;1.25;;;8.10;99.90;;;;;;5037849;28;20251;-74
2022/04/08 09:20:41;;;;;;;5.55;1.80;;;8.00;99.90;;;;;;5030354;28;20225;-74
2022/04/08 09:23:13;;;;;;;4.72;1.50;;;8.00;99.90;;;;;;5020557;28;20462;-75
2022/04/08 09:25:41;;;;;;;3.80;1.00;;;8.00;99.90;;;;;;5019123;28;20254;-75
2022/04/08 09:28:17;;;;;;;4.10;1.55;;;8.00;99.90;;;;;;5020044;28;20644;-75
2022/04/08 09:30:52;;;;;;;5.60;1.95;;;7.90;99.90;;;;;;5023560;28;20263;-74
2022/04/08 09:33:23;;;;;;;3.17;1.27;;;8.20;99.90;;;;;;5021146;28;20300;-74
2022/04/08 09:35:55;;;;;;;2.22;1.02;;;8.40;99.90;;;;;;5030149;28;20232;-74
2022/04/08 09:38:25;;;;;;;3.28;1.10;;;8.60;99.90;;;;;;5021744;28;20229;-74
2022/04/08 09:41:02;;;;;;;5.90;1.38;;;8.60;99.90;;;;;;5032960;28;20316;-74
2022/04/08 09:43:34;;;;;;;4.82;1.80;;;8.60;99.90;;;;;;5032591;28;20220;-76
2022/04/08 09:46:16;;;;;;;4.15;1.13;;;8.70;99.90;;;;;;5030865;28;20213;-77
2022/04/08 09:48:45;;;;;;;2.80;1.35;;;8.80;99.90;;;;;;5034856;28;20232;-78
2022/04/08 09:51:21;;;;;;;2.67;1.30;;;8.90;99.90;;;;;;5044994;28;20233;-78
2022/04/08 09:53:54;;;;;;;5.82;3.35;;;9.00;99.90;;;;;;5037168;28;20371;-78
2022/04/08 09:56:24;;;;;;;5.18;1.55;;;9.00;99.90;;;;;;5044277;28;20793;-77
2022/04/08 09:58:58;;;;;;;4.00;1.42;;;9.20;99.90;;;;;;5046789;28;20202;-77
2022/04/08 10:01:28;;;;;;;9.32;1.52;;;9.30;99.90;;;;;;5042157;28;20317;-75
2022/04/08 10:03:57;;;;;;;4.00;1.20;;;9.30;99.90;;;;;;5057049;28;20579;-77
2022/04/08 10:06:28;;;;;;;4.40;1.35;;;9.30;99.90;;;;;;5057692;28;20197;-78
2022/04/08 10:08:57;;;;;;;0.95;0.90;;;9.20;99.90;;;;;;5052429;28;20217;-77
2022/04/08 10:11:36;;;;;;;2.80;1.40;;;9.20;99.90;;;;;;5055550;28;20225;-77
2022/04/08 10:14:44;;;;;;;3.15;0.90;;;9.10;99.90;;;;;;5049879;28;20197;-77
2022/04/08 10:17:13;;;;;;;3.60;0.93;;;9.30;99.90;;;;;;5043122;28;20202;-77
2022/04/08 10:19:47;;;;;;;2.35;1.33;;;9.50;99.90;;;;;;5045800;28;20581;-76
2022/04/08 10:22:26;;;;;;;5.50;1.10;;;9.50;99.90;;;;;;5045452;28;20201;-77
2022/04/08 10:24:55;;;;;;;2.08;0.82;;;9.50;99.90;;;;;;5039416;28;20541;-78
2022/04/08 10:27:31;;;;;;;2.25;0.68;;;9.50;99.90;;;;;;5040705;28;20305;-76
2022/04/08 10:29:59;;;;;;;2.45;0.90;;;9.60;99.90;;;;;;5039432;28;20215;-77
2022/04/08 10:32:38;;;;;;;2.63;0.95;;;9.80;99.90;;;;;;5039844;28;20197;-77
2022/04/08 10:35:18;;;;;;;1.58;0.70;;;9.90;99.90;;;;;;5041774;28;20705;-75
2022/04/08 10:37:57;;;;;;;2.42;0.90;;;9.80;99.90;;;;;;5042277;28;20201;-79
2022/04/08 10:40:32;;;;;;;1.88;1.00;;;9.80;99.90;;;;;;5041770;28;20218;-76
2022/04/08 10:43:02;;;;;;;3.60;1.40;;;9.90;99.90;;;;;;5039103;28;20280;-76
2022/04/08 10:45:30;;;;;;;4.35;0.75;;;9.70;99.90;;;;;;5040488;28;20303;-77
2022/04/08 10:48:02;;;;;;;4.63;1.10;;;9.60;99.90;;;;;;5037290;28;20807;-74
2022/04/08 10:50:34;;;;;;;2.40;0.80;;;9.50;99.90;;;;;;5040321;28;20512;-73
2022/04/08 10:53:08;;;;;;;0.80;0.80;;;9.50;99.90;;;;;;5023236;28;20666;-73
2022/04/08 10:55:49;;;;;;;5.75;1.17;;;9.40;99.90;;;;;;5033856;28;20452;-73
2022/04/08 10:58:31;;;;;;;3.65;1.00;;;9.40;99.90;;;;;;5026340;28;20300;-73
2022/04/08 11:00:59;;;;;;;2.92;0.60;;;9.30;99.90;;;;;;5030714;28;20213;-72
2022/04/08 11:03:28;;;;;;;3.60;1.20;;;9.20;99.90;;;;;;5039055;28;20193;-73
2022/04/08 11:05:56;;;;;;;1.35;1.25;;;9.30;99.90;;;;;;5040426;28;20225;-74
2022/04/08 11:08:27;;;;;;;1.48;0.70;;;9.20;99.90;;;;;;5039668;28;20459;-74
2022/04/08 11:10:58;;;;;;;3.47;2.13;;;9.20;99.90;;;;;;5040326;28;20392;-74
2022/04/08 11:13:26;;;;;;;2.75;1.10;;;9.20;99.90;;;;;;5038544;28;20202;-72
2022/04/08 11:16:00;;;;;;;1.60;0.95;;;9.30;99.90;;;;;;5040512;28;20287;-75
2022/04/08 11:18:28;;;;;;;1.77;0.85;;;9.40;99.90;;;;;;5040413;28;20287;-73
2022/04/08 11:20:56;;;;;;;8.63;1.95;;;9.50;99.90;;;;;;5023070;28;20277;-73
2022/04/08 11:23:30;;;;;;;3.53;0.85;;;9.40;99.90;;;;;;5020870;28;20301;-73
2022/04/08 11:25:58;;;;;;;7.32;1.52;;;9.40;99.90;;;;;;5019762;28;20216;-73
2022/04/08 11:28:26;;;;;;;6.82;1.95;;;9.30;99.90;;;;;;5020402;28;20308;-73
2022/04/08 11:30:58;;;;;;;4.70;1.20;;;9.30;99.90;;;;;;5027459;28;20232;-73
2022/04/08 11:33:27;;;;;;;4.10;1.08;;;9.30;99.90;;;;;;5024080;28;20202;-72
2022/04/08 11:35:57;;;;;;;1.67;0.73;;;9.30;99.90;;;;;;5022317;28;20353;-74
2022/04/08 11:38:28;;;;;;;4.28;1.23;;;9.40;99.90;;;;;;5029904;28;20212;-74
2022/04/08 11:40:57;;;;;;;2.53;1.10;;;9.50;99.90;;;;;;5039147;28;20217;-74
2022/04/08 11:43:25;;;;;;;3.60;0.75;;;9.60;99.90;;;;;;5040021;28;20212;-73
2022/04/08 11:45:53;;;;;;;4.60;1.20;;;9.70;99.90;;;;;;5039217;28;20206;-79
2022/04/08 11:48:25;;;;;;;2.78;1.00;;;9.70;99.90;;;;;;5030779;28;20421;-78
2022/04/08 11:51:06;;;;;;;1.60;0.95;;;9.90;99.90;;;;;;5026131;28;20608;-78
2022/04/08 11:53:43;;;;;;;1.48;0.80;;;10.10;99.90;;;;;;5037485;28;20237;-79
2022/04/08 11:56:19;;;;;;;1.52;0.57;;;10.20;99.90;;;;;;5020594;28;20206;-79
2022/04/08 11:58:54;;;;;;;0.98;0.85;;;10.30;99.90;;;;;;5020854;28;20204;-79
2022/04/08 12:01:22;;;;;;;1.33;1.10;;;10.30;99.90;;;;;;5021398;28;20225;-77
2022/04/08 12:03:51;;;;;;;3.53;1.13;;;10.50;99.90;;;;;;5021384;28;20737;-79
2022/04/08 12:06:20;;;;;;;1.35;0.73;;;10.70;99.90;;;;;;5021238;28;20808;-78
2022/04/08 12:08:48;;;;;;;1.30;0.73;;;10.80;99.90;;;;;;5019617;28;20222;-79
2022/04/08 12:11:19;;;;;;;1.85;0.90;;;11.00;99.90;;;;;;5027043;28;20724;-79
2022/04/08 12:13:48;;;;;;;2.47;1.67;;;10.90;99.90;;;;;;5039034;28;20541;-77
2022/04/08 12:16:18;;;;;;;2.40;0.95;;;10.80;99.90;;;;;;5039586;28;20193;-78
2022/04/08 12:18:51;;;;;;;2.83;1.00;;;10.70;99.90;;;;;;5039207;28;20734;-79
2022/04/08 12:21:24;;;;;;;2.83;1.50;;;10.40;99.90;;;;;;5038495;28;20476;-75
2022/04/08 12:23:54;;;;;;;3.38;1.00;;;10.10;99.90;;;;;;5040193;28;20194;-78
2022/04/08 12:26:29;;;;;;;2.08;1.27;;;10.10;99.90;;;;;;5042306;28;20289;-79
2022/04/08 12:29:08;;;;;;;3.20;1.30;;;10.00;99.90;;;;;;5037716;28;20217;-79
2022/04/08 12:31:45;;;;;;;1.05;0.60;;;9.90;99.90;;;;;;5038219;28;20305;-78
2022/04/08 12:34:14;;;;;;;8.02;1.27;;;9.90;99.90;;;;;;5040775;28;20205;-79
2022/04/08 12:36:42;;;;;;;7.72;1.10;;;9.80;99.90;;;;;;5040517;28;20303;-79
2022/04/08 12:39:15;;;;;;;1.90;0.95;;;9.60;99.90;;;;;;5040252;28;20214;-77
2022/04/08 12:41:46;;;;;;;3.90;1.10;;;9.40;99.90;;;;;;5039911;28;20226;-78
2022/04/08 12:44:15;;;;;;;2.40;0.93;;;9.10;99.90;;;;;;5039848;28;20326;-78
2022/04/08 12:46:43;;;;;;;1.23;1.13;;;8.90;99.90;;;;;;5039001;28;20546;-78
2022/04/08 12:49:12;;;;;;;2.55;0.70;;;8.70;99.90;;;;;;5039764;28;20213;-78
2022/04/08 12:51:40;;;;;;;0.90;0.90;;;8.60;99.90;;;;;;5039658;28;20214;-79
2022/04/08 12:54:08;;;;;;;1.33;0.80;;;8.40;99.90;;;;;;5037108;28;20200;-78
2022/04/08 12:56:36;;;;;;;0.40;0.40;;;8.40;99.90;;;;;;5041713;28;20444;-80
2022/04/08 12:59:05;;;;;;;0.70;0.65;;;8.40;99.90;;;;;;5039080;28;20450;-78
2022/04/08 13:01:33;;;;;;;1.55;0.70;;;8.40;99.90;;;;;;5038746;28;20218;-78
2022/04/08 13:04:02;;;;;;;2.50;0.70;;;8.40;99.90;;;;;;5039201;28;20200;-79
2022/04/08 13:06:31;;;;;;;1.15;0.55;;;8.40;99.90;;;;;;5038877;28;20194;-79